sensor_id;sensor_type;location;lat;lon;timestamp;P1;durP1;ratioP1;P2;durP2;ratioP2
14078;SDS011;7115;50.150;8.568;2024-01-15T00:00:38;24.67;;;9.87;;
14078;SDS011;7115;50.150;8.568;2024-01-15T00:03:07;29.63;;;11.27;;
14078;SDS011;7115;50.150;8.568;2024-01-15T00:05:34;25.07;;;9.50;;
14078;SDS011;7115;50.150;8.568;2024-01-15T00:08:01;26.10;;;10.53;;
14078;SDS011;7115;50.150;8.568;2024-01-15T00:10:28;25.27;;;10.17;;
14078;SDS011;7115;50.150;8.568;2024-01-15T00:12:55;24.80;;;10.37;;
14078;SDS011;7115;50.150;8.568;2024-01-15T00:15:22;24.27;;;10.40;;
14078;SDS011;7115;50.150;8.568;2024-01-15T00:17:50;25.07;;;10.13;;
14078;SDS011;7115;50.150;8.568;2024-01-15T00:20:18;25.27;;;11.17;;
14078;SDS011;7115;50.150;8.568;2024-01-15T00:22:45;27.63;;;11.57;;
14078;SDS011;7115;50.150;8.568;2024-01-15T00:25:12;21.80;;;9.20;;
14078;SDS011;7115;50.150;8.568;2024-01-15T00:27:39;25.73;;;10.97;;
14078;SDS011;7115;50.150;8.568;2024-01-15T00:30:07;26.13;;;11.63;;
14078;SDS011;7115;50.150;8.568;2024-01-15T00:32:34;30.57;;;10.53;;
14078;SDS011;7115;50.150;8.568;2024-01-15T00:35:01;25.77;;;10.73;;
14078;SDS011;7115;50.150;8.568;2024-01-15T00:37:31;34.43;;;11.30;;
14078;SDS011;7115;50.150;8.568;2024-01-15T00:39:58;25.87;;;10.80;;
14078;SDS011;7115;50.150;8.568;2024-01-15T00:42:25;25.00;;;9.90;;
14078;SDS011;7115;50.150;8.568;2024-01-15T00:44:52;25.37;;;10.83;;
14078;SDS011;7115;50.150;8.568;2024-01-15T00:47:20;24.80;;;9.33;;
14078;SDS011;7115;50.150;8.568;2024-01-15T00:49:47;24.10;;;9.43;;
14078;SDS011;7115;50.150;8.568;2024-01-15T00:52:14;27.53;;;10.77;;
14078;SDS011;7115;50.150;8.568;2024-01-15T00:54:42;24.50;;;9.77;;
14078;SDS011;7115;50.150;8.568;2024-01-15T00:57:10;26.07;;;10.23;;
14078;SDS011;7115;50.150;8.568;2024-01-15T00:59:37;30.27;;;11.93;;
14078;SDS011;7115;50.150;8.568;2024-01-15T01:02:04;25.53;;;11.00;;
14078;SDS011;7115;50.150;8.568;2024-01-15T01:04:31;30.53;;;11.73;;
14078;SDS011;7115;50.150;8.568;2024-01-15T01:06:58;24.57;;;10.33;;
14078;SDS011;7115;50.150;8.568;2024-01-15T01:09:25;21.97;;;9.23;;
14078;SDS011;7115;50.150;8.568;2024-01-15T01:11:56;26.63;;;10.90;;
14078;SDS011;7115;50.150;8.568;2024-01-15T01:14:23;28.33;;;11.07;;
14078;SDS011;7115;50.150;8.568;2024-01-15T01:16:50;34.07;;;11.80;;
14078;SDS011;7115;50.150;8.568;2024-01-15T01:19:17;26.97;;;11.60;;
14078;SDS011;7115;50.150;8.568;2024-01-15T01:21:45;30.60;;;11.43;;
14078;SDS011;7115;50.150;8.568;2024-01-15T01:24:12;29.53;;;12.13;;
14078;SDS011;7115;50.150;8.568;2024-01-15T01:26:39;27.80;;;12.70;;
14078;SDS011;7115;50.150;8.568;2024-01-15T01:29:07;28.00;;;11.27;;
14078;SDS011;7115;50.150;8.568;2024-01-15T01:31:34;34.10;;;12.03;;
14078;SDS011;7115;50.150;8.568;2024-01-15T01:34:01;30.67;;;12.00;;
14078;SDS011;7115;50.150;8.568;2024-01-15T01:36:29;34.33;;;12.60;;
14078;SDS011;7115;50.150;8.568;2024-01-15T01:38:58;29.00;;;11.33;;
14078;SDS011;7115;50.150;8.568;2024-01-15T01:41:25;24.37;;;10.13;;
14078;SDS011;7115;50.150;8.568;2024-01-15T01:43:52;31.20;;;12.57;;
14078;SDS011;7115;50.150;8.568;2024-01-15T01:46:20;29.43;;;11.93;;
14078;SDS011;7115;50.150;8.568;2024-01-15T01:48:47;27.07;;;11.67;;
14078;SDS011;7115;50.150;8.568;2024-01-15T01:51:15;28.87;;;12.20;;
14078;SDS011;7115;50.150;8.568;2024-01-15T01:53:43;32.80;;;11.37;;
14078;SDS011;7115;50.150;8.568;2024-01-15T01:56:11;31.93;;;11.33;;
14078;SDS011;7115;50.150;8.568;2024-01-15T01:58:40;25.80;;;10.47;;
14078;SDS011;7115;50.150;8.568;2024-01-15T02:01:07;25.87;;;10.57;;
14078;SDS011;7115;50.150;8.568;2024-01-15T02:03:36;24.83;;;11.27;;
14078;SDS011;7115;50.150;8.568;2024-01-15T02:06:03;28.27;;;11.40;;
14078;SDS011;7115;50.150;8.568;2024-01-15T02:08:30;29.80;;;11.47;;
14078;SDS011;7115;50.150;8.568;2024-01-15T02:10:58;27.73;;;10.30;;
14078;SDS011;7115;50.150;8.568;2024-01-15T02:13:25;31.80;;;11.73;;
14078;SDS011;7115;50.150;8.568;2024-01-15T02:15:52;26.40;;;11.67;;
14078;SDS011;7115;50.150;8.568;2024-01-15T02:18:19;21.63;;;9.37;;
14078;SDS011;7115;50.150;8.568;2024-01-15T02:20:48;27.40;;;11.53;;
14078;SDS011;7115;50.150;8.568;2024-01-15T02:23:16;26.73;;;10.80;;
14078;SDS011;7115;50.150;8.568;2024-01-15T02:25:44;29.90;;;11.27;;
14078;SDS011;7115;50.150;8.568;2024-01-15T02:28:13;29.23;;;10.77;;
14078;SDS011;7115;50.150;8.568;2024-01-15T02:30:41;25.27;;;9.83;;
14078;SDS011;7115;50.150;8.568;2024-01-15T02:33:10;31.40;;;11.47;;
14078;SDS011;7115;50.150;8.568;2024-01-15T02:35:38;30.07;;;11.33;;
14078;SDS011;7115;50.150;8.568;2024-01-15T02:38:05;28.10;;;10.80;;
14078;SDS011;7115;50.150;8.568;2024-01-15T02:40:34;28.20;;;10.10;;
14078;SDS011;7115;50.150;8.568;2024-01-15T02:43:02;27.73;;;11.60;;
14078;SDS011;7115;50.150;8.568;2024-01-15T02:45:29;30.57;;;11.57;;
14078;SDS011;7115;50.150;8.568;2024-01-15T02:47:56;25.60;;;9.90;;
14078;SDS011;7115;50.150;8.568;2024-01-15T02:50:24;28.20;;;10.73;;
14078;SDS011;7115;50.150;8.568;2024-01-15T02:52:51;24.87;;;9.83;;
14078;SDS011;7115;50.150;8.568;2024-01-15T02:55:18;26.40;;;10.60;;
14078;SDS011;7115;50.150;8.568;2024-01-15T02:57:46;25.80;;;11.53;;
14078;SDS011;7115;50.150;8.568;2024-01-15T03:00:13;25.87;;;9.80;;
14078;SDS011;7115;50.150;8.568;2024-01-15T03:02:41;31.47;;;11.93;;
14078;SDS011;7115;50.150;8.568;2024-01-15T03:05:14;25.27;;;11.03;;
14078;SDS011;7115;50.150;8.568;2024-01-15T03:07:41;29.43;;;11.63;;
14078;SDS011;7115;50.150;8.568;2024-01-15T03:10:08;30.77;;;12.07;;
14078;SDS011;7115;50.150;8.568;2024-01-15T03:12:35;20.73;;;10.17;;
14078;SDS011;7115;50.150;8.568;2024-01-15T03:15:04;24.53;;;10.27;;
14078;SDS011;7115;50.150;8.568;2024-01-15T03:17:32;27.63;;;10.93;;
14078;SDS011;7115;50.150;8.568;2024-01-15T03:19:59;30.60;;;11.40;;
14078;SDS011;7115;50.150;8.568;2024-01-15T03:22:26;29.80;;;11.47;;
14078;SDS011;7115;50.150;8.568;2024-01-15T03:24:54;24.43;;;10.03;;
14078;SDS011;7115;50.150;8.568;2024-01-15T03:27:21;26.13;;;11.20;;
14078;SDS011;7115;50.150;8.568;2024-01-15T03:29:48;26.37;;;10.13;;
14078;SDS011;7115;50.150;8.568;2024-01-15T03:32:16;27.43;;;10.80;;
14078;SDS011;7115;50.150;8.568;2024-01-15T03:34:43;30.70;;;11.83;;
14078;SDS011;7115;50.150;8.568;2024-01-15T03:37:11;26.10;;;10.87;;
14078;SDS011;7115;50.150;8.568;2024-01-15T03:39:39;34.53;;;11.53;;
14078;SDS011;7115;50.150;8.568;2024-01-15T03:42:06;31.83;;;11.40;;
14078;SDS011;7115;50.150;8.568;2024-01-15T03:44:33;27.40;;;10.20;;
14078;SDS011;7115;50.150;8.568;2024-01-15T03:47:00;28.90;;;11.23;;
14078;SDS011;7115;50.150;8.568;2024-01-15T03:49:28;23.80;;;9.80;;
14078;SDS011;7115;50.150;8.568;2024-01-15T03:51:55;27.13;;;11.67;;
14078;SDS011;7115;50.150;8.568;2024-01-15T03:54:23;26.30;;;10.50;;
14078;SDS011;7115;50.150;8.568;2024-01-15T03:56:50;24.83;;;10.13;;
14078;SDS011;7115;50.150;8.568;2024-01-15T03:59:16;29.73;;;11.63;;
14078;SDS011;7115;50.150;8.568;2024-01-15T04:01:47;23.37;;;10.10;;
14078;SDS011;7115;50.150;8.568;2024-01-15T04:04:16;25.93;;;10.03;;
14078;SDS011;7115;50.150;8.568;2024-01-15T04:06:45;22.23;;;9.03;;
14078;SDS011;7115;50.150;8.568;2024-01-15T04:09:13;30.77;;;10.87;;
14078;SDS011;7115;50.150;8.568;2024-01-15T04:11:40;22.97;;;9.57;;
14078;SDS011;7115;50.150;8.568;2024-01-15T04:14:07;23.47;;;9.63;;
14078;SDS011;7115;50.150;8.568;2024-01-15T04:16:34;24.80;;;10.17;;
14078;SDS011;7115;50.150;8.568;2024-01-15T04:19:03;25.73;;;10.77;;
14078;SDS011;7115;50.150;8.568;2024-01-15T04:21:30;20.83;;;9.87;;
14078;SDS011;7115;50.150;8.568;2024-01-15T04:23:58;25.33;;;10.77;;
14078;SDS011;7115;50.150;8.568;2024-01-15T04:26:25;20.30;;;9.00;;
14078;SDS011;7115;50.150;8.568;2024-01-15T04:28:52;21.03;;;9.33;;
14078;SDS011;7115;50.150;8.568;2024-01-15T04:31:20;23.77;;;10.10;;
14078;SDS011;7115;50.150;8.568;2024-01-15T04:33:49;19.17;;;8.33;;
14078;SDS011;7115;50.150;8.568;2024-01-15T04:36:16;18.80;;;8.33;;
14078;SDS011;7115;50.150;8.568;2024-01-15T04:38:43;27.53;;;9.17;;
14078;SDS011;7115;50.150;8.568;2024-01-15T04:41:12;29.23;;;8.73;;
14078;SDS011;7115;50.150;8.568;2024-01-15T04:43:39;21.70;;;9.07;;
14078;SDS011;7115;50.150;8.568;2024-01-15T04:46:06;20.30;;;8.83;;
14078;SDS011;7115;50.150;8.568;2024-01-15T04:48:33;20.17;;;8.70;;
14078;SDS011;7115;50.150;8.568;2024-01-15T04:51:01;23.27;;;9.30;;
14078;SDS011;7115;50.150;8.568;2024-01-15T04:53:30;23.60;;;8.93;;
14078;SDS011;7115;50.150;8.568;2024-01-15T04:55:58;25.20;;;9.07;;
14078;SDS011;7115;50.150;8.568;2024-01-15T04:58:26;26.60;;;10.03;;
14078;SDS011;7115;50.150;8.568;2024-01-15T05:00:53;21.87;;;9.83;;
14078;SDS011;7115;50.150;8.568;2024-01-15T05:03:21;25.53;;;9.13;;
14078;SDS011;7115;50.150;8.568;2024-01-15T05:05:48;18.20;;;8.57;;
14078;SDS011;7115;50.150;8.568;2024-01-15T05:08:15;24.83;;;8.97;;
14078;SDS011;7115;50.150;8.568;2024-01-15T05:10:42;16.27;;;7.57;;
14078;SDS011;7115;50.150;8.568;2024-01-15T05:13:09;24.40;;;9.27;;
14078;SDS011;7115;50.150;8.568;2024-01-15T05:15:37;24.07;;;9.13;;
14078;SDS011;7115;50.150;8.568;2024-01-15T05:18:04;23.07;;;9.27;;
14078;SDS011;7115;50.150;8.568;2024-01-15T05:20:33;20.10;;;9.47;;
14078;SDS011;7115;50.150;8.568;2024-01-15T05:23:00;21.37;;;8.83;;
14078;SDS011;7115;50.150;8.568;2024-01-15T05:25:27;27.43;;;10.27;;
14078;SDS011;7115;50.150;8.568;2024-01-15T05:27:54;19.23;;;8.93;;
14078;SDS011;7115;50.150;8.568;2024-01-15T05:30:22;28.87;;;9.93;;
14078;SDS011;7115;50.150;8.568;2024-01-15T05:32:50;21.73;;;8.93;;
14078;SDS011;7115;50.150;8.568;2024-01-15T05:35:17;21.07;;;8.77;;
14078;SDS011;7115;50.150;8.568;2024-01-15T05:37:45;22.57;;;9.13;;
14078;SDS011;7115;50.150;8.568;2024-01-15T05:40:12;22.93;;;9.50;;
14078;SDS011;7115;50.150;8.568;2024-01-15T05:42:39;24.43;;;9.60;;
14078;SDS011;7115;50.150;8.568;2024-01-15T05:45:08;20.30;;;9.37;;
14078;SDS011;7115;50.150;8.568;2024-01-15T05:47:35;22.03;;;9.33;;
14078;SDS011;7115;50.150;8.568;2024-01-15T05:50:04;24.30;;;9.77;;
14078;SDS011;7115;50.150;8.568;2024-01-15T05:52:33;20.90;;;8.27;;
14078;SDS011;7115;50.150;8.568;2024-01-15T05:55:00;24.03;;;9.53;;
14078;SDS011;7115;50.150;8.568;2024-01-15T05:57:27;23.67;;;8.20;;
14078;SDS011;7115;50.150;8.568;2024-01-15T05:59:54;21.37;;;9.13;;
14078;SDS011;7115;50.150;8.568;2024-01-15T06:02:21;22.07;;;9.43;;
14078;SDS011;7115;50.150;8.568;2024-01-15T06:04:48;19.40;;;8.73;;
14078;SDS011;7115;50.150;8.568;2024-01-15T06:07:17;25.90;;;9.63;;
14078;SDS011;7115;50.150;8.568;2024-01-15T06:09:44;24.73;;;9.73;;
14078;SDS011;7115;50.150;8.568;2024-01-15T06:12:11;24.77;;;9.43;;
14078;SDS011;7115;50.150;8.568;2024-01-15T06:14:38;23.40;;;9.17;;
14078;SDS011;7115;50.150;8.568;2024-01-15T06:17:07;22.27;;;9.40;;
14078;SDS011;7115;50.150;8.568;2024-01-15T06:19:34;21.50;;;9.17;;
14078;SDS011;7115;50.150;8.568;2024-01-15T06:22:01;26.70;;;8.90;;
14078;SDS011;7115;50.150;8.568;2024-01-15T06:24:30;25.60;;;8.90;;
14078;SDS011;7115;50.150;8.568;2024-01-15T06:26:57;29.40;;;10.37;;
14078;SDS011;7115;50.150;8.568;2024-01-15T06:29:25;26.57;;;10.33;;
14078;SDS011;7115;50.150;8.568;2024-01-15T06:31:53;27.17;;;9.70;;
14078;SDS011;7115;50.150;8.568;2024-01-15T06:34:20;25.17;;;10.30;;
14078;SDS011;7115;50.150;8.568;2024-01-15T06:36:47;25.53;;;10.07;;
14078;SDS011;7115;50.150;8.568;2024-01-15T06:39:15;25.73;;;10.33;;
14078;SDS011;7115;50.150;8.568;2024-01-15T06:41:43;20.30;;;9.63;;
14078;SDS011;7115;50.150;8.568;2024-01-15T06:44:10;29.67;;;10.50;;
14078;SDS011;7115;50.150;8.568;2024-01-15T06:46:41;32.13;;;11.17;;
14078;SDS011;7115;50.150;8.568;2024-01-15T06:49:08;31.70;;;11.67;;
14078;SDS011;7115;50.150;8.568;2024-01-15T06:51:36;24.67;;;9.63;;
14078;SDS011;7115;50.150;8.568;2024-01-15T06:54:03;29.33;;;10.37;;
14078;SDS011;7115;50.150;8.568;2024-01-15T06:56:31;28.53;;;10.47;;
14078;SDS011;7115;50.150;8.568;2024-01-15T06:58:59;29.60;;;10.90;;
14078;SDS011;7115;50.150;8.568;2024-01-15T07:01:26;26.27;;;10.90;;
14078;SDS011;7115;50.150;8.568;2024-01-15T07:03:53;27.50;;;10.30;;
14078;SDS011;7115;50.150;8.568;2024-01-15T07:06:20;30.17;;;11.20;;
14078;SDS011;7115;50.150;8.568;2024-01-15T07:08:48;29.97;;;11.57;;
14078;SDS011;7115;50.150;8.568;2024-01-15T07:11:16;30.07;;;11.47;;
14078;SDS011;7115;50.150;8.568;2024-01-15T07:13:43;30.33;;;11.87;;
14078;SDS011;7115;50.150;8.568;2024-01-15T07:16:11;31.70;;;11.57;;
14078;SDS011;7115;50.150;8.568;2024-01-15T07:18:45;28.13;;;11.37;;
14078;SDS011;7115;50.150;8.568;2024-01-15T07:21:12;23.87;;;10.67;;
14078;SDS011;7115;50.150;8.568;2024-01-15T07:23:39;30.23;;;11.70;;
14078;SDS011;7115;50.150;8.568;2024-01-15T07:26:06;28.70;;;11.67;;
14078;SDS011;7115;50.150;8.568;2024-01-15T07:28:33;26.00;;;10.73;;
14078;SDS011;7115;50.150;8.568;2024-01-15T07:31:00;28.03;;;10.20;;
14078;SDS011;7115;50.150;8.568;2024-01-15T07:33:31;27.27;;;10.60;;
14078;SDS011;7115;50.150;8.568;2024-01-15T07:35:58;29.43;;;12.60;;
14078;SDS011;7115;50.150;8.568;2024-01-15T07:38:29;26.20;;;10.53;;
14078;SDS011;7115;50.150;8.568;2024-01-15T07:40:55;29.03;;;10.60;;
14078;SDS011;7115;50.150;8.568;2024-01-15T07:43:23;26.10;;;11.17;;
14078;SDS011;7115;50.150;8.568;2024-01-15T07:45:50;22.83;;;10.00;;
14078;SDS011;7115;50.150;8.568;2024-01-15T07:48:17;28.80;;;10.83;;
14078;SDS011;7115;50.150;8.568;2024-01-15T07:50:45;27.37;;;11.33;;
14078;SDS011;7115;50.150;8.568;2024-01-15T07:53:12;30.97;;;12.07;;
14078;SDS011;7115;50.150;8.568;2024-01-15T07:55:39;24.63;;;10.43;;
14078;SDS011;7115;50.150;8.568;2024-01-15T07:58:06;24.03;;;10.67;;
14078;SDS011;7115;50.150;8.568;2024-01-15T08:00:42;24.77;;;10.43;;
14078;SDS011;7115;50.150;8.568;2024-01-15T08:03:10;26.30;;;11.67;;
14078;SDS011;7115;50.150;8.568;2024-01-15T08:05:37;24.43;;;11.07;;
14078;SDS011;7115;50.150;8.568;2024-01-15T08:08:06;26.13;;;10.77;;
14078;SDS011;7115;50.150;8.568;2024-01-15T08:10:33;27.53;;;11.43;;
14078;SDS011;7115;50.150;8.568;2024-01-15T08:13:00;37.40;;;13.90;;
14078;SDS011;7115;50.150;8.568;2024-01-15T08:15:27;29.77;;;11.83;;
14078;SDS011;7115;50.150;8.568;2024-01-15T08:17:57;22.67;;;11.00;;
14078;SDS011;7115;50.150;8.568;2024-01-15T08:20:25;27.73;;;11.73;;
14078;SDS011;7115;50.150;8.568;2024-01-15T08:22:53;28.13;;;11.60;;
14078;SDS011;7115;50.150;8.568;2024-01-15T08:25:21;29.60;;;11.63;;
14078;SDS011;7115;50.150;8.568;2024-01-15T08:27:48;28.27;;;12.37;;
14078;SDS011;7115;50.150;8.568;2024-01-15T08:30:15;30.40;;;11.93;;
14078;SDS011;7115;50.150;8.568;2024-01-15T08:32:43;21.53;;;10.83;;
14078;SDS011;7115;50.150;8.568;2024-01-15T08:35:10;32.43;;;12.23;;
14078;SDS011;7115;50.150;8.568;2024-01-15T08:37:37;23.70;;;10.90;;
14078;SDS011;7115;50.150;8.568;2024-01-15T08:40:05;28.53;;;11.80;;
14078;SDS011;7115;50.150;8.568;2024-01-15T08:42:34;25.47;;;9.87;;
14078;SDS011;7115;50.150;8.568;2024-01-15T08:45:01;28.40;;;12.47;;
14078;SDS011;7115;50.150;8.568;2024-01-15T08:47:28;28.53;;;12.10;;
14078;SDS011;7115;50.150;8.568;2024-01-15T08:49:55;31.13;;;12.27;;
14078;SDS011;7115;50.150;8.568;2024-01-15T08:52:22;29.10;;;12.67;;
14078;SDS011;7115;50.150;8.568;2024-01-15T08:54:49;26.30;;;11.77;;
14078;SDS011;7115;50.150;8.568;2024-01-15T08:57:19;31.53;;;11.93;;
14078;SDS011;7115;50.150;8.568;2024-01-15T08:59:47;22.63;;;10.63;;
14078;SDS011;7115;50.150;8.568;2024-01-15T09:02:14;25.60;;;11.53;;
14078;SDS011;7115;50.150;8.568;2024-01-15T09:04:41;24.60;;;10.53;;
14078;SDS011;7115;50.150;8.568;2024-01-15T09:07:08;27.93;;;10.83;;
14078;SDS011;7115;50.150;8.568;2024-01-15T09:09:35;25.03;;;11.93;;
14078;SDS011;7115;50.150;8.568;2024-01-15T09:12:03;32.27;;;11.20;;
14078;SDS011;7115;50.150;8.568;2024-01-15T09:14:30;26.03;;;11.27;;
14078;SDS011;7115;50.150;8.568;2024-01-15T09:17:04;24.83;;;10.70;;
14078;SDS011;7115;50.150;8.568;2024-01-15T09:19:32;23.60;;;11.97;;
14078;SDS011;7115;50.150;8.568;2024-01-15T09:21:59;25.10;;;10.80;;
14078;SDS011;7115;50.150;8.568;2024-01-15T09:24:26;27.47;;;10.93;;
14078;SDS011;7115;50.150;8.568;2024-01-15T09:26:55;23.40;;;10.70;;
14078;SDS011;7115;50.150;8.568;2024-01-15T09:29:22;23.67;;;10.97;;
14078;SDS011;7115;50.150;8.568;2024-01-15T09:31:50;24.83;;;10.93;;
14078;SDS011;7115;50.150;8.568;2024-01-15T09:34:19;23.00;;;10.63;;
14078;SDS011;7115;50.150;8.568;2024-01-15T09:36:46;20.27;;;10.07;;
14078;SDS011;7115;50.150;8.568;2024-01-15T09:39:15;20.10;;;10.07;;
14078;SDS011;7115;50.150;8.568;2024-01-15T09:41:42;19.03;;;9.43;;
14078;SDS011;7115;50.150;8.568;2024-01-15T09:44:10;22.80;;;9.93;;
14078;SDS011;7115;50.150;8.568;2024-01-15T09:46:38;23.37;;;9.90;;
14078;SDS011;7115;50.150;8.568;2024-01-15T09:49:06;17.80;;;9.43;;
14078;SDS011;7115;50.150;8.568;2024-01-15T09:51:35;18.13;;;9.93;;
14078;SDS011;7115;50.150;8.568;2024-01-15T09:54:02;20.30;;;9.73;;
14078;SDS011;7115;50.150;8.568;2024-01-15T09:56:30;15.63;;;8.83;;
14078;SDS011;7115;50.150;8.568;2024-01-15T09:58:58;21.73;;;9.33;;
14078;SDS011;7115;50.150;8.568;2024-01-15T10:01:26;20.80;;;9.37;;
14078;SDS011;7115;50.150;8.568;2024-01-15T10:03:54;22.60;;;10.20;;
14078;SDS011;7115;50.150;8.568;2024-01-15T10:06:21;15.77;;;8.37;;
14078;SDS011;7115;50.150;8.568;2024-01-15T10:08:50;18.27;;;9.13;;
14078;SDS011;7115;50.150;8.568;2024-01-15T10:11:18;19.70;;;9.50;;
14078;SDS011;7115;50.150;8.568;2024-01-15T10:13:45;20.17;;;9.83;;
14078;SDS011;7115;50.150;8.568;2024-01-15T10:16:16;18.40;;;9.00;;
14078;SDS011;7115;50.150;8.568;2024-01-15T10:18:43;18.03;;;8.67;;
14078;SDS011;7115;50.150;8.568;2024-01-15T10:21:10;21.23;;;9.50;;
14078;SDS011;7115;50.150;8.568;2024-01-15T10:23:37;22.10;;;9.83;;
14078;SDS011;7115;50.150;8.568;2024-01-15T10:26:06;19.77;;;9.80;;
14078;SDS011;7115;50.150;8.568;2024-01-15T10:28:33;19.27;;;9.67;;
14078;SDS011;7115;50.150;8.568;2024-01-15T10:31:00;21.80;;;10.03;;
14078;SDS011;7115;50.150;8.568;2024-01-15T10:33:28;17.13;;;8.80;;
14078;SDS011;7115;50.150;8.568;2024-01-15T10:35:56;29.80;;;9.97;;
14078;SDS011;7115;50.150;8.568;2024-01-15T10:38:24;20.80;;;8.97;;
14078;SDS011;7115;50.150;8.568;2024-01-15T10:40:51;22.77;;;8.90;;
14078;SDS011;7115;50.150;8.568;2024-01-15T10:43:20;17.13;;;8.57;;
14078;SDS011;7115;50.150;8.568;2024-01-15T10:45:53;14.80;;;8.37;;
14078;SDS011;7115;50.150;8.568;2024-01-15T10:48:20;16.40;;;8.70;;
14078;SDS011;7115;50.150;8.568;2024-01-15T10:50:48;15.23;;;8.27;;
14078;SDS011;7115;50.150;8.568;2024-01-15T10:53:15;16.87;;;8.47;;
14078;SDS011;7115;50.150;8.568;2024-01-15T10:55:44;18.57;;;8.73;;
14078;SDS011;7115;50.150;8.568;2024-01-15T10:58:15;20.17;;;8.90;;
14078;SDS011;7115;50.150;8.568;2024-01-15T11:00:45;21.37;;;8.93;;
14078;SDS011;7115;50.150;8.568;2024-01-15T11:03:12;21.10;;;9.53;;
14078;SDS011;7115;50.150;8.568;2024-01-15T11:05:41;16.83;;;8.87;;
14078;SDS011;7115;50.150;8.568;2024-01-15T11:08:10;19.07;;;9.83;;
14078;SDS011;7115;50.150;8.568;2024-01-15T11:10:37;19.03;;;8.93;;
14078;SDS011;7115;50.150;8.568;2024-01-15T11:13:08;19.77;;;9.27;;
14078;SDS011;7115;50.150;8.568;2024-01-15T11:15:57;19.23;;;9.30;;
14078;SDS011;7115;50.150;8.568;2024-01-15T11:18:27;15.43;;;7.87;;
14078;SDS011;7115;50.150;8.568;2024-01-15T11:23:50;14.17;;;7.87;;
14078;SDS011;7115;50.150;8.568;2024-01-15T11:26:36;14.67;;;7.77;;
14078;SDS011;7115;50.150;8.568;2024-01-15T11:29:04;12.60;;;7.70;;
14078;SDS011;7115;50.150;8.568;2024-01-15T11:37:21;14.67;;;8.13;;
14078;SDS011;7115;50.150;8.568;2024-01-15T11:39:50;14.97;;;7.97;;
14078;SDS011;7115;50.150;8.568;2024-01-15T11:42:19;14.77;;;7.60;;
14078;SDS011;7115;50.150;8.568;2024-01-15T11:44:47;14.87;;;7.20;;
14078;SDS011;7115;50.150;8.568;2024-01-15T11:47:29;14.17;;;7.40;;
14078;SDS011;7115;50.150;8.568;2024-01-15T11:50:12;13.63;;;7.43;;
14078;SDS011;7115;50.150;8.568;2024-01-15T11:52:40;16.73;;;7.97;;
14078;SDS011;7115;50.150;8.568;2024-01-15T11:55:19;13.10;;;8.03;;
14078;SDS011;7115;50.150;8.568;2024-01-15T11:57:49;14.57;;;7.90;;
14078;SDS011;7115;50.150;8.568;2024-01-15T12:00:18;14.37;;;7.83;;
14078;SDS011;7115;50.150;8.568;2024-01-15T12:02:46;13.93;;;6.83;;
14078;SDS011;7115;50.150;8.568;2024-01-15T12:05:15;15.70;;;7.90;;
14078;SDS011;7115;50.150;8.568;2024-01-15T12:07:44;15.63;;;8.17;;
14078;SDS011;7115;50.150;8.568;2024-01-15T12:10:12;13.73;;;6.87;;
14078;SDS011;7115;50.150;8.568;2024-01-15T12:12:47;15.80;;;8.60;;
14078;SDS011;7115;50.150;8.568;2024-01-15T12:15:21;13.03;;;7.13;;
14078;SDS011;7115;50.150;8.568;2024-01-15T12:17:50;17.90;;;8.17;;
14078;SDS011;7115;50.150;8.568;2024-01-15T12:20:17;14.20;;;7.43;;
14078;SDS011;7115;50.150;8.568;2024-01-15T12:22:45;14.60;;;7.37;;
14078;SDS011;7115;50.150;8.568;2024-01-15T12:25:26;13.50;;;7.10;;
14078;SDS011;7115;50.150;8.568;2024-01-15T12:27:53;12.70;;;6.67;;
14078;SDS011;7115;50.150;8.568;2024-01-15T12:30:21;12.77;;;6.43;;
14078;SDS011;7115;50.150;8.568;2024-01-15T12:32:48;14.63;;;6.77;;
14078;SDS011;7115;50.150;8.568;2024-01-15T12:35:16;15.23;;;7.13;;
14078;SDS011;7115;50.150;8.568;2024-01-15T12:37:45;13.43;;;5.97;;
14078;SDS011;7115;50.150;8.568;2024-01-15T12:40:19;13.73;;;6.83;;
14078;SDS011;7115;50.150;8.568;2024-01-15T12:42:48;11.87;;;6.20;;
14078;SDS011;7115;50.150;8.568;2024-01-15T12:45:15;12.27;;;6.77;;
14078;SDS011;7115;50.150;8.568;2024-01-15T12:47:44;13.80;;;7.20;;
14078;SDS011;7115;50.150;8.568;2024-01-15T12:50:11;14.80;;;7.17;;
14078;SDS011;7115;50.150;8.568;2024-01-15T12:52:47;10.10;;;5.63;;
14078;SDS011;7115;50.150;8.568;2024-01-15T12:55:14;13.77;;;6.17;;
14078;SDS011;7115;50.150;8.568;2024-01-15T12:57:42;10.00;;;5.27;;
14078;SDS011;7115;50.150;8.568;2024-01-15T13:00:09;10.67;;;5.77;;
14078;SDS011;7115;50.150;8.568;2024-01-15T13:02:40;10.30;;;5.83;;
14078;SDS011;7115;50.150;8.568;2024-01-15T13:05:08;9.30;;;5.33;;
14078;SDS011;7115;50.150;8.568;2024-01-15T13:07:39;12.80;;;4.93;;
14078;SDS011;7115;50.150;8.568;2024-01-15T13:10:08;8.50;;;4.50;;
14078;SDS011;7115;50.150;8.568;2024-01-15T13:12:36;7.47;;;4.37;;
14078;SDS011;7115;50.150;8.568;2024-01-15T13:15:04;13.17;;;4.77;;
14078;SDS011;7115;50.150;8.568;2024-01-15T13:17:31;7.47;;;4.10;;
14078;SDS011;7115;50.150;8.568;2024-01-15T13:19:58;8.80;;;4.40;;
14078;SDS011;7115;50.150;8.568;2024-01-15T13:22:26;9.87;;;4.60;;
14078;SDS011;7115;50.150;8.568;2024-01-15T13:24:58;10.73;;;4.57;;
14078;SDS011;7115;50.150;8.568;2024-01-15T13:27:27;7.57;;;4.10;;
14078;SDS011;7115;50.150;8.568;2024-01-15T13:29:55;13.03;;;4.40;;
14078;SDS011;7115;50.150;8.568;2024-01-15T13:32:23;8.43;;;3.80;;
14078;SDS011;7115;50.150;8.568;2024-01-15T13:34:55;8.20;;;4.00;;
14078;SDS011;7115;50.150;8.568;2024-01-15T13:37:22;7.63;;;3.87;;
14078;SDS011;7115;50.150;8.568;2024-01-15T13:39:52;9.13;;;3.77;;
14078;SDS011;7115;50.150;8.568;2024-01-15T13:42:20;8.90;;;3.83;;
14078;SDS011;7115;50.150;8.568;2024-01-15T13:44:51;6.07;;;3.40;;
14078;SDS011;7115;50.150;8.568;2024-01-15T13:47:18;6.40;;;3.67;;
14078;SDS011;7115;50.150;8.568;2024-01-15T13:49:45;8.67;;;3.90;;
14078;SDS011;7115;50.150;8.568;2024-01-15T13:52:12;10.37;;;4.03;;
14078;SDS011;7115;50.150;8.568;2024-01-15T13:54:40;6.87;;;3.30;;
14078;SDS011;7115;50.150;8.568;2024-01-15T13:57:16;4.90;;;2.47;;
14078;SDS011;7115;50.150;8.568;2024-01-15T13:59:44;5.47;;;2.97;;
14078;SDS011;7115;50.150;8.568;2024-01-15T14:02:12;4.20;;;2.80;;
14078;SDS011;7115;50.150;8.568;2024-01-15T14:04:45;4.97;;;2.77;;
14078;SDS011;7115;50.150;8.568;2024-01-15T14:07:12;5.57;;;3.10;;
14078;SDS011;7115;50.150;8.568;2024-01-15T14:09:39;5.97;;;3.50;;
14078;SDS011;7115;50.150;8.568;2024-01-15T14:12:07;5.03;;;2.90;;
14078;SDS011;7115;50.150;8.568;2024-01-15T14:14:34;5.33;;;2.53;;
14078;SDS011;7115;50.150;8.568;2024-01-15T14:17:01;8.77;;;2.57;;
14078;SDS011;7115;50.150;8.568;2024-01-15T14:19:29;4.40;;;2.17;;
14078;SDS011;7115;50.150;8.568;2024-01-15T14:21:57;4.57;;;2.37;;
14078;SDS011;7115;50.150;8.568;2024-01-15T14:24:24;5.37;;;3.03;;
14078;SDS011;7115;50.150;8.568;2024-01-15T14:26:51;5.20;;;1.90;;
14078;SDS011;7115;50.150;8.568;2024-01-15T14:29:18;5.40;;;2.93;;
14078;SDS011;7115;50.150;8.568;2024-01-15T14:31:47;9.10;;;2.40;;
14078;SDS011;7115;50.150;8.568;2024-01-15T14:34:14;4.63;;;2.83;;
14078;SDS011;7115;50.150;8.568;2024-01-15T14:36:43;5.73;;;2.23;;
14078;SDS011;7115;50.150;8.568;2024-01-15T14:39:10;9.87;;;2.90;;
14078;SDS011;7115;50.150;8.568;2024-01-15T14:41:38;4.00;;;2.50;;
14078;SDS011;7115;50.150;8.568;2024-01-15T14:44:07;7.20;;;2.70;;
14078;SDS011;7115;50.150;8.568;2024-01-15T14:46:34;5.60;;;2.70;;
14078;SDS011;7115;50.150;8.568;2024-01-15T14:49:03;8.90;;;2.83;;
14078;SDS011;7115;50.150;8.568;2024-01-15T14:51:31;4.90;;;2.53;;
14078;SDS011;7115;50.150;8.568;2024-01-15T14:53:59;5.43;;;2.83;;
14078;SDS011;7115;50.150;8.568;2024-01-15T14:56:26;5.47;;;2.67;;